Time;durP1;ratioP1;P1;durP2;ratioP2;P2;SDS_P1;SDS_P2;PMS_P1;PMS_P2;Temp;Humidity;BMP_temperature;BMP_pressure;BME280_temperature;BME280_humidity;BME280_pressure;Samples;Min_cycle;Max_cycle;Signal;HPM_P1;HPM_P2
2022/02/03 00:02:18;;;;;;;7.50;1.53;;;;;;;3.22;85.93;101336.38;5035957;28;20252;-80
2022/02/03 00:04:53;;;;;;;8.03;1.87;;;;;;;3.31;86.05;101343.47;5036085;28;20206;-80
2022/02/03 00:07:27;;;;;;;7.27;2.70;;;;;;;3.36;85.43;101344.47;5036024;28;20669;-80
2022/02/03 00:10:25;;;;;;;5.03;1.93;;;;;;;3.44;85.08;101361.03;5035047;28;20226;-78
2022/02/03 00:24:11;;;;;;;6.37;1.67;;;;;;;3.45;85.07;101356.72;5036338;28;20209;-80
2022/02/03 00:26:44;;;;;;;4.50;1.60;;;;;;;3.38;85.42;101350.56;5035775;28;20660;-80
2022/02/03 00:29:25;;;;;;;4.57;1.53;;;;;;;3.36;86.03;101339.31;5035517;28;20324;-80
2022/02/03 00:32:03;;;;;;;5.43;1.50;;;;;;;3.32;85.94;101327.19;5035663;28;20602;-78
2022/02/03 00:34:40;;;;;;;12.57;1.50;;;;;;;3.34;85.70;101320.34;5035508;28;20202;-80
2022/02/03 00:37:14;;;;;;;5.00;1.57;;;;;;;3.31;86.09;101313.41;5034184;28;20612;-80
2022/02/03 00:48:20;;;;;;;5.30;2.07;;;;;;;3.31;86.74;101284.13;5037569;28;20718;-80
2022/02/03 00:50:50;;;;;;;3.83;1.83;;;;;;;3.36;86.79;101270.50;5036929;28;20501;-80
2022/02/03 00:53:19;;;;;;;8.90;2.63;;;;;;;3.41;86.01;101277.47;5036025;28;20208;-79
2022/02/03 00:55:52;;;;;;;11.67;2.00;;;;;;;3.43;86.19;101276.72;5035981;28;20241;-80
2022/02/03 00:58:24;;;;;;;7.30;2.00;;;;;;;3.44;86.23;101272.41;5036627;28;20190;-80
2022/02/03 01:00:54;;;;;;;4.83;1.70;;;;;;;3.40;86.45;101261.13;5036480;28;20263;-80
2022/02/03 01:03:26;;;;;;;5.47;2.53;;;;;;;3.37;86.01;101267.09;5036635;28;20643;-80
2022/02/03 01:05:57;;;;;;;6.13;2.13;;;;;;;3.41;86.19;101267.16;5036230;28;20649;-80
2022/02/03 01:08:27;;;;;;;5.20;2.10;;;;;;;3.42;85.97;101268.94;5036735;28;20207;-80
2022/02/03 01:11:04;;;;;;;7.97;1.93;;;;;;;3.41;86.23;101264.59;5035742;28;20735;-80
2022/02/03 01:13:39;;;;;;;7.40;2.30;;;;;;;3.42;86.01;101256.88;5017227;28;20208;-80
2022/02/03 01:16:13;;;;;;;7.47;2.40;;;;;;;3.33;86.31;101247.22;5016125;28;20730;-80
2022/02/03 01:19:05;;;;;;;6.77;2.20;;;;;;;3.23;86.78;101234.06;5016406;28;20227;-80
2022/02/03 01:33:28;;;;;;;9.27;2.30;;;;;;;3.30;87.21;101215.31;5016614;28;20219;-79
2022/02/03 01:33:41;;;;;;;6.10;1.87;;;;;;;3.31;87.75;101197.28;4975571;28;20195;-80
2022/02/03 01:44:45;;;;;;;5.40;2.27;;;;;;;3.36;88.31;101161.25;5040113;28;20210;-80
2022/02/03 01:47:26;;;;;;;6.10;2.23;;;;;;;3.40;88.75;101142.44;5037254;28;20197;-80
2022/02/03 01:52:39;;;;;;;5.63;2.30;;;;;;;3.56;88.70;101125.56;5034624;28;20238;-78
2022/02/03 01:55:08;;;;;;;11.33;3.03;;;;;;;3.64;88.84;101124.00;5035569;28;20252;-80
2022/02/03 01:57:37;;;;;;;9.77;2.63;;;;;;;3.70;89.03;101126.69;5036446;28;20268;-80
2022/02/03 02:00:09;;;;;;;9.63;3.07;;;;;;;3.75;88.64;101122.50;5035803;28;20252;-81
2022/02/03 02:02:38;;;;;;;11.57;3.17;;;;;;;3.83;88.84;101124.41;5036538;28;20268;-80
2022/02/03 02:05:21;;;;;;;7.83;2.80;;;;;;;3.89;88.31;101122.78;5035953;28;20206;-80
2022/02/03 02:07:57;;;;;;;8.33;2.93;;;;;;;3.96;88.73;101111.75;5040117;28;20194;-80
2022/02/03 02:10:52;;;;;;;9.47;3.40;;;;;;;3.98;89.19;101104.00;5038834;28;20321;-80
2022/02/03 02:13:40;;;;;;;8.40;3.23;;;;;;;4.03;88.69;101104.09;5036205;28;20711;-79
2022/02/03 02:16:36;;;;;;;9.33;3.43;;;;;;;4.11;88.75;101099.94;5039969;28;20660;-80
2022/02/03 02:19:18;;;;;;;14.77;3.80;;;;;;;4.16;89.10;101086.28;5039173;28;20223;-80
2022/02/03 02:38:42;;;;;;;13.07;4.70;;;;;;;4.21;94.19;100926.16;5038704;28;20700;-80
2022/02/03 02:44:02;;;;;;;14.00;5.57;;;;;;;4.31;94.87;100906.47;5039547;28;20650;-80
2022/02/03 02:46:35;;;;;;;14.40;5.20;;;;;;;4.39;94.55;100907.44;5036360;28;20674;-80
2022/02/03 02:49:19;;;;;;;18.33;5.53;;;;;;;4.41;94.52;100905.75;5036048;28;20223;-80
2022/02/03 02:51:53;;;;;;;15.47;5.77;;;;;;;4.44;94.22;100898.06;5038561;28;20188;-79
2022/02/03 02:54:51;;;;;;;18.33;6.40;;;;;;;4.52;94.36;100888.69;5038140;28;20243;-79
2022/02/03 03:31:26;;;;;;;18.00;7.83;;;;;;;4.50;97.40;100758.53;4976289;28;20259;-79
2022/02/03 03:34:04;;;;;;;18.00;8.17;;;;;;;4.52;97.40;100750.78;5017082;28;20215;-79
2022/02/03 03:36:33;;;;;;;17.77;7.60;;;;;;;4.50;97.80;100740.44;5037514;28;20187;-79
2022/02/03 03:39:02;;;;;;;22.60;8.40;;;;;;;4.41;98.55;100726.56;5036737;28;20265;-79
2022/02/03 03:41:34;;;;;;;19.53;9.23;;;;;;;4.38;99.31;100705.00;5037097;28;20289;-79
2022/02/03 03:44:05;;;;;;;22.70;8.57;;;;;;;4.38;99.68;100681.75;5037602;28;20627;-79
2022/02/03 03:46:33;;;;;;;20.80;9.17;;;;;;;4.37;100.00;100674.81;5037748;28;20241;-79
2022/02/03 03:49:06;;;;;;;20.73;7.93;;;;;;;4.48;100.00;100662.03;5037313;28;20314;-79
2022/02/03 03:51:42;;;;;;;19.77;8.70;;;;;;;4.50;100.00;100659.44;5036659;28;20228;-79
2022/02/03 03:54:14;;;;;;;18.73;7.73;;;;;;;4.43;100.00;100647.31;5036760;28;20650;-79
2022/02/03 03:56:55;;;;;;;8.83;6.93;;;;;;;4.54;100.00;100633.66;5037686;28;20195;-79
2022/02/03 04:32:03;;;;;;;10.50;5.97;;;;;;;4.60;100.00;100614.75;5017068;28;20234;-79
2022/02/03 04:34:52;;;;;;;11.40;6.07;;;;;;;4.64;100.00;100600.97;5017286;28;20672;-79
2022/02/03 04:37:57;;;;;;;9.67;4.70;;;;;;;4.66;100.00;100594.09;5017387;28;20203;-79
2022/02/03 04:40:47;;;;;;;8.30;4.77;;;;;;;4.65;100.00;100599.25;5031608;28;20231;-79
2022/02/03 05:04:21;;;;;;;7.03;4.90;;;;;;;4.69;100.00;100532.06;5036569;28;20272;-79
2022/02/03 05:07:18;;;;;;;7.20;5.03;;;;;;;4.70;100.00;100523.47;5036577;28;20232;-79
2022/02/03 05:10:07;;;;;;;6.13;4.77;;;;;;;4.73;100.00;100526.03;5036480;28;20232;-80
2022/02/03 05:13:04;;;;;;;5.00;4.50;;;;;;;4.76;100.00;100526.06;5030129;28;20206;-79
2022/02/03 05:15:57;;;;;;;5.47;4.73;;;;;;;4.76;100.00;100531.25;5037769;28;20206;-79
2022/02/03 05:18:54;;;;;;;4.73;4.23;;;;;;;4.76;100.00;100509.72;5037948;28;20705;-79
2022/02/03 05:43:17;;;;;;;5.57;4.43;;;;;;;4.89;100.00;100485.63;5028534;28;20214;-78
2022/02/03 05:46:01;;;;;;;4.47;4.07;;;;;;;4.93;100.00;100491.69;5034764;28;20215;-78
2022/02/03 05:48:58;;;;;;;5.60;5.10;;;;;;;4.96;100.00;100499.47;5035276;28;20246;-78
2022/02/03 05:51:50;;;;;;;5.83;5.10;;;;;;;4.91;100.00;100499.41;5014747;28;20238;-78
2022/02/03 05:54:50;;;;;;;6.20;5.40;;;;;;;4.93;100.00;100494.25;5013984;28;20667;-79
2022/02/03 06:03:31;;;;;;;8.50;6.83;;;;;;;5.07;100.00;100491.75;4943782;29;20634;-77
2022/02/03 06:06:12;;;;;;;7.07;6.23;;;;;;;5.02;100.00;100490.88;4944803;29;20705;-78
2022/02/03 06:08:52;;;;;;;7.77;6.73;;;;;;;5.03;100.00;100485.69;4977589;28;20779;-76
2022/02/03 06:14:11;;;;;;;7.13;6.43;;;;;;;5.11;100.00;100475.38;5005392;28;20681;-77
2022/02/03 06:16:47;;;;;;;7.40;6.70;;;;;;;5.10;100.00;100479.69;5003807;28;20260;-77
2022/02/03 06:22:22;;;;;;;14.97;7.37;;;;;;;5.14;100.00;100472.81;5004300;28;20283;-76
2022/02/03 06:27:23;;;;;;;7.77;6.97;;;;;;;5.19;100.00;100473.66;5004653;28;20208;-77
2022/02/03 06:27:38;;;;;;;7.73;7.13;;;;;;;5.18;100.00;100465.06;5004570;28;20200;-77
2022/02/03 06:30:07;;;;;;;7.33;6.60;;;;;;;5.20;100.00;100461.63;5003825;28;20229;-76
2022/02/03 06:32:38;;;;;;;8.67;7.20;;;;;;;5.22;100.00;100460.75;5003125;28;20201;-77
2022/02/03 06:35:05;;;;;;;8.00;6.57;;;;;;;5.25;100.00;100468.53;5003712;28;20192;-77
2022/02/03 06:37:32;;;;;;;6.40;5.90;;;;;;;5.29;100.00;100464.22;5004570;28;20910;-77
2022/02/03 06:39:59;;;;;;;6.67;6.00;;;;;;;5.30;100.00;100461.63;5003799;28;20934;-77
2022/02/03 06:42:25;;;;;;;6.70;6.20;;;;;;;5.31;100.00;100462.50;5006878;28;20555;-77
2022/02/03 06:44:56;;;;;;;6.80;6.10;;;;;;;5.38;100.00;100459.94;5002879;28;20206;-77
2022/02/03 06:47:28;;;;;;;6.90;6.37;;;;;;;5.38;100.00;100459.94;5003736;28;20250;-77
2022/02/03 06:50:01;;;;;;;7.60;7.00;;;;;;;5.42;100.00;100454.78;5003660;28;20222;-77
2022/02/03 06:52:42;;;;;;;6.97;6.40;;;;;;;5.44;100.00;100463.41;5004247;28;20244;-76
2022/02/03 06:55:14;;;;;;;7.37;6.77;;;;;;;5.43;100.00;100462.56;5004063;28;20931;-77
2022/02/03 06:57:45;;;;;;;7.53;6.83;;;;;;;5.42;100.00;100460.81;5003137;28;20219;-77
2022/02/03 07:00:19;;;;;;;7.33;6.60;;;;;;;5.46;100.00;100454.78;5001769;28;20291;-78
2022/02/03 07:02:48;;;;;;;7.63;6.93;;;;;;;5.49;100.00;100456.50;5003857;28;20189;-77
2022/02/03 07:05:15;;;;;;;7.83;7.13;;;;;;;5.45;100.00;100466.00;5002232;28;20594;-76
2022/02/03 07:07:42;;;;;;;8.23;7.53;;;;;;;5.46;100.00;100449.59;5003569;28;20226;-76
2022/02/03 07:10:10;;;;;;;8.23;7.53;;;;;;;5.50;100.00;100447.88;5004955;28;20279;-80
2022/02/03 07:12:38;;;;;;;8.13;7.33;;;;;;;5.55;100.00;100443.59;5005855;28;20205;-76
2022/02/03 07:15:06;;;;;;;7.93;7.23;;;;;;;5.59;100.00;100450.50;5003527;28;20294;-77
2022/02/03 07:17:34;;;;;;;7.87;7.17;;;;;;;5.62;100.00;100455.66;5002195;28;20204;-77
2022/02/03 07:20:03;;;;;;;7.97;7.27;;;;;;;5.59;100.00;100447.91;5003103;28;20221;-78
2022/02/03 07:22:31;;;;;;;7.90;7.17;;;;;;;5.57;100.00;100441.88;5004043;28;20201;-77
2022/02/03 07:24:57;;;;;;;7.67;6.97;;;;;;;5.63;100.00;100446.16;5001993;28;20209;-78
2022/02/03 07:27:25;;;;;;;7.47;6.87;;;;;;;5.65;100.00;100447.03;5003039;28;20200;-77
2022/02/03 07:29:53;;;;;;;8.40;7.60;;;;;;;5.67;100.00;100447.91;5003342;28;20279;-77
2022/02/03 07:32:22;;;;;;;8.07;7.47;;;;;;;5.69;100.00;100452.25;5002111;28;20230;-77
2022/02/03 07:34:50;;;;;;;8.67;7.83;;;;;;;5.73;100.00;100451.38;5002325;28;20196;-78
2022/02/03 07:37:17;;;;;;;8.17;7.53;;;;;;;5.67;100.00;100447.91;5002103;28;20205;-77
2022/02/03 07:39:45;;;;;;;8.47;7.77;;;;;;;5.67;100.00;100450.50;5003612;28;20228;-78
2022/02/03 07:42:12;;;;;;;8.03;7.43;;;;;;;5.73;100.00;100441.03;5005447;28;20283;-75
2022/02/03 07:44:38;;;;;;;8.33;7.63;;;;;;;5.75;100.00;100451.38;5000571;28;20197;-77
2022/02/03 07:47:06;;;;;;;8.43;7.63;;;;;;;5.81;100.00;100447.91;4993759;28;20590;-76
2022/02/03 07:49:34;;;;;;;8.33;7.67;;;;;;;5.80;100.00;100452.25;4993064;28;20782;-78
2022/02/03 07:52:01;;;;;;;8.97;8.27;;;;;;;5.85;100.00;100444.50;4993305;28;20315;-78
2022/02/03 07:54:27;;;;;;;9.07;8.37;;;;;;;5.78;100.00;100457.41;4993414;28;20206;-78
2022/02/03 07:56:55;;;;;;;8.63;7.87;;;;;;;5.78;100.00;100460.00;4994306;28;20224;-78
2022/02/03 07:59:21;;;;;;;8.93;8.23;;;;;;;5.76;100.00;100464.31;4992682;28;20292;-78
2022/02/03 08:01:48;;;;;;;9.00;8.30;;;;;;;5.85;100.00;100460.88;4994439;28;20260;-78
2022/02/03 08:04:15;;;;;;;9.17;8.33;;;;;;;5.88;100.00;100460.88;4995644;28;20206;-79
2022/02/03 08:06:45;;;;;;;8.93;8.13;;;;;;;5.91;100.00;100458.28;4993590;28;20213;-77
2022/02/03 08:09:20;;;;;;;9.43;8.73;;;;;;;5.96;100.00;100460.91;4993059;28;20258;-78
2022/02/03 08:11:48;;;;;;;10.23;9.23;;;;;;;5.99;100.00;100458.34;5012108;28;20222;-78
2022/02/03 08:14:20;;;;;;;8.63;7.93;;;;;;;6.00;100.00;100462.63;5011854;28;20204;-79
2022/02/03 08:16:51;;;;;;;9.57;8.87;;;;;;;6.04;100.00;100454.00;5003453;28;20282;-78
2022/02/03 08:19:23;;;;;;;9.37;8.57;;;;;;;6.09;100.00;100451.44;5002045;28;20221;-77
2022/02/03 08:21:57;;;;;;;8.27;7.57;;;;;;;6.11;100.00;100455.72;4993921;28;20571;-78
2022/02/03 08:24:26;;;;;;;8.10;7.50;;;;;;;6.16;100.00;100455.72;4994574;28;20259;-77
2022/02/03 08:27:22;;;;;;;8.27;7.57;;;;;;;6.15;100.00;100457.47;4995124;28;20213;-79
2022/02/03 08:30:08;;;;;;;8.83;8.13;;;;;;;6.08;100.00;100458.31;4995037;28;20261;-78
2022/02/03 08:32:38;;;;;;;8.73;7.87;;;;;;;6.11;100.00;100457.47;4993559;28;20579;-79
2022/02/03 08:35:19;;;;;;;8.67;7.97;;;;;;;6.12;100.00;100461.78;4995655;28;20212;-77
2022/02/03 08:37:47;;;;;;;8.07;7.47;;;;;;;6.16;100.00;100454.03;4992923;28;20578;-78
2022/02/03 08:40:23;;;;;;;8.37;7.57;;;;;;;6.23;100.00;100459.19;4999428;28;20255;-78
2022/02/03 08:42:50;;;;;;;8.67;7.97;;;;;;;6.13;100.00;100454.00;5013403;28;20660;-78
2022/02/03 08:45:18;;;;;;;8.60;7.90;;;;;;;6.14;100.00;100450.56;5014802;28;20991;-78
2022/02/03 08:47:45;;;;;;;8.60;7.80;;;;;;;6.23;100.00;100441.91;5007821;28;20670;-78
2022/02/03 08:50:12;;;;;;;7.93;7.33;;;;;;;6.28;100.00;100447.97;5007268;28;20232;-77
2022/02/03 08:52:48;;;;;;;8.13;7.53;;;;;;;6.30;100.00;100451.41;5007351;28;20626;-78
2022/02/03 08:55:24;;;;;;;8.63;7.93;;;;;;;6.37;100.00;100441.88;5002770;28;20219;-79
2022/02/03 08:58:24;;;;;;;8.70;7.90;;;;;;;6.43;100.00;100441.88;4999479;28;20691;-79
2022/02/03 09:39:58;;;;;;;7.27;6.67;;;;;;;6.59;100.00;100436.66;5018740;28;20977;-78
2022/02/03 09:56:52;;;;;;;9.90;9.00;;;;;;;6.71;100.00;100403.75;4975132;28;20211;-81
2022/02/03 09:59:20;;;;;;;8.83;8.03;;;;;;;6.79;100.00;100403.72;5016676;28;20232;-76
2022/02/03 10:01:53;;;;;;;8.33;7.63;;;;;;;6.81;100.00;100411.50;5018214;28;20274;-79
2022/02/03 10:04:42;;;;;;;9.63;8.73;;;;;;;6.78;100.00;100424.47;5015448;28;20328;-77
2022/02/03 10:07:16;;;;;;;9.17;8.40;;;;;;;6.71;100.00;100427.09;5015473;28;20225;-77
2022/02/03 10:09:44;;;;;;;9.73;8.93;;;;;;;6.74;100.00;100423.66;5016166;28;20596;-79
2022/02/03 10:12:11;;;;;;;9.03;8.33;;;;;;;6.69;100.00;100426.22;5018352;28;20777;-78
2022/02/03 10:14:40;;;;;;;10.03;9.20;;;;;;;6.83;100.00;100425.34;5015845;28;20210;-78
2022/02/03 10:17:07;;;;;;;9.70;8.70;;;;;;;6.98;100.00;100409.72;5016093;28;20213;-78
2022/02/03 10:19:36;;;;;;;9.00;8.30;;;;;;;7.01;100.00;100422.66;5014772;28;20742;-78
2022/02/03 10:22:11;;;;;;;8.83;8.03;;;;;;;7.08;100.00;100429.53;5015344;28;20720;-78
2022/02/03 10:24:39;;;;;;;11.20;10.20;;;;;;;7.13;100.00;100434.72;5015451;28;20240;-78
2022/02/03 10:27:21;;;;;;;9.23;8.53;;;;;;;7.18;100.00;100438.16;5015666;28;20213;-79
2022/02/03 10:29:48;;;;;;;10.13;8.13;;;;;;;7.23;100.00;100459.75;5020223;28;20273;-77
2022/02/03 10:32:14;;;;;;;9.57;8.77;;;;;;;7.18;100.00;100471.91;5019596;28;20261;-79
2022/02/03 10:34:42;;;;;;;9.30;8.53;;;;;;;7.21;100.00;100486.59;5006092;28;20667;-78
2022/02/03 10:37:13;;;;;;;9.07;8.37;;;;;;;7.23;100.00;100488.31;5010286;28;20209;-77
2022/02/03 10:43:06;;;;;;;9.07;8.10;;;;;;;7.26;100.00;100497.84;5006433;28;20208;-78
2022/02/03 10:45:46;;;;;;;8.73;7.93;;;;;;;7.14;100.00;100507.38;5013849;28;20208;-76
2022/02/03 10:48:36;;;;;;;8.63;7.87;;;;;;;7.05;100.00;100499.63;5014181;28;20205;-77
2022/02/03 10:51:29;;;;;;;8.47;7.67;;;;;;;7.11;100.00;100481.44;5013253;28;20234;-77
2022/02/03 10:54:13;;;;;;;8.80;8.00;;;;;;;7.20;100.00;100484.88;5014032;28;20205;-77
2022/02/03 10:57:19;;;;;;;8.13;7.33;;;;;;;7.11;100.00;100499.59;5013913;28;20603;-77
2022/02/03 11:00:06;;;;;;;7.87;7.13;;;;;;;7.09;100.00;100487.50;5013643;28;20278;-77
2022/02/03 11:02:46;;;;;;;8.07;7.37;;;;;;;6.98;100.00;100490.16;5013572;28;20189;-77
2022/02/03 11:08:02;;;;;;;8.33;7.63;;;;;;;7.13;100.00;100478.84;5006284;28;20252;-78
2022/02/03 11:10:34;;;;;;;8.73;7.93;;;;;;;7.19;100.00;100475.34;5013093;28;20320;-78
2022/02/03 11:13:03;;;;;;;7.43;6.73;;;;;;;7.24;100.00;100474.47;5012898;28;20235;-77
2022/02/03 11:15:32;;;;;;;7.33;6.63;;;;;;;7.35;100.00;100466.59;5013604;28;20258;-78
2022/02/03 11:18:01;;;;;;;7.67;7.00;;;;;;;7.28;100.00;100470.97;5013514;28;20620;-76
2022/02/03 11:20:30;;;;;;;7.80;7.03;;;;;;;7.34;100.00;100470.94;5013190;28;20229;-76
2022/02/03 11:23:10;;;;;;;7.37;6.77;;;;;;;7.29;100.00;100480.47;5013358;28;20210;-77
2022/02/03 11:26:00;;;;;;;7.07;6.47;;;;;;;7.27;100.00;100491.75;5013089;28;20307;-78
2022/02/03 11:28:55;;;;;;;7.33;6.63;;;;;;;7.33;100.00;100479.63;5013018;28;20219;-77
2022/02/03 11:35:02;;;;;;;6.73;6.13;;;;;;;7.32;99.24;100505.59;5012847;28;20697;-77
2022/02/03 11:43:38;;;;;;;7.63;6.90;;;;;;;7.36;99.35;100497.78;5033651;22;20237;-79
2022/02/03 11:49:18;;;;;;;6.83;6.23;;;;;;;7.45;98.66;100509.88;5000551;28;20280;-78
2022/02/03 11:52:11;;;;;;;5.93;5.43;;;;;;;7.40;98.39;100523.75;5018995;28;20243;-79
2022/02/03 11:57:56;;;;;;;6.47;5.87;;;;;;;7.52;98.27;100508.94;5012690;28;20204;-79
2022/02/03 12:00:48;;;;;;;6.33;5.80;;;;;;;7.52;98.98;100500.28;5016322;28;20213;-79
2022/02/03 12:03:48;;;;;;;6.67;6.07;;;;;;;7.57;98.96;100472.53;5017418;28;20229;-78
2022/02/03 12:15:21;;;;;;;6.57;6.00;;;;;;;7.51;100.00;100418.94;5018349;28;20189;-79
2022/02/03 12:17:58;;;;;;;6.80;6.20;;;;;;;7.32;100.00;100425.09;5018436;28;20673;-78
2022/02/03 12:20:44;;;;;;;6.90;6.30;;;;;;;7.25;98.71;100444.16;5018364;28;20201;-81
2022/02/03 12:23:36;;;;;;;7.80;7.20;;;;;;;7.34;98.59;100444.13;5019758;28;20249;-81
2022/02/03 12:26:09;;;;;;;6.80;6.20;;;;;;;7.27;98.59;100451.06;5019703;28;20213;-79
2022/02/03 12:28:48;;;;;;;6.53;5.93;;;;;;;7.39;98.13;100444.94;5010856;28;20225;-78
2022/02/03 12:39:40;;;;;;;11.60;10.40;;;;;;;7.43;97.34;100475.22;5015616;28;20204;-78
2022/02/03 12:42:18;;;;;;;11.10;10.00;;;;;;;7.51;97.00;100483.84;5015091;28;20237;-78
2022/02/03 12:44:45;;;;;;;10.73;9.73;;;;;;;7.56;97.40;100474.28;5015050;28;20205;-78
2022/02/03 12:47:13;;;;;;;7.93;7.27;;;;;;;7.64;97.24;100475.97;5014839;28;20209;-77
2022/02/03 12:49:40;;;;;;;8.37;7.57;;;;;;;7.72;97.10;100471.59;4995587;28;20219;-77
2022/02/03 12:52:28;;;;;;;7.77;7.00;;;;;;;7.71;97.68;100456.88;4975489;28;20249;-77
2022/02/03 12:54:56;;;;;;;7.80;7.10;;;;;;;7.78;97.29;100465.50;4975059;28;20221;-77
2022/02/03 12:57:29;;;;;;;7.97;7.13;;;;;;;7.84;97.50;100453.31;5000943;28;20205;-80
2022/02/03 13:00:13;;;;;;;8.00;6.83;;;;;;;7.92;97.67;100448.91;5011507;28;20715;-78
2022/02/03 13:02:40;;;;;;;7.90;7.20;;;;;;;7.95;96.38;100458.44;5014697;28;20613;-80
2022/02/03 13:05:07;;;;;;;7.00;6.40;;;;;;;7.98;96.29;100458.41;5014846;28;20220;-78
2022/02/03 13:07:35;;;;;;;7.23;6.57;;;;;;;8.01;96.47;100461.00;5014676;28;20237;-79
2022/02/03 13:10:08;;;;;;;7.40;6.73;;;;;;;8.05;96.68;100467.03;5015086;28;20213;-79
2022/02/03 13:12:38;;;;;;;7.63;6.63;;;;;;;8.07;96.41;100463.53;5014684;28;20240;-78
2022/02/03 13:15:07;;;;;;;7.77;7.07;;;;;;;8.11;96.18;100457.44;5014705;28;20704;-80
2022/02/03 13:17:38;;;;;;;8.23;7.30;;;;;;;8.18;96.65;100449.59;5014184;28;20221;-77
2022/02/03 13:20:08;;;;;;;8.17;7.57;;;;;;;8.18;95.86;100454.78;5014651;28;20236;-80
2022/02/03 13:22:44;;;;;;;8.00;7.30;;;;;;;8.16;95.54;100471.25;4303860;28;10001151;-78
2022/02/03 13:25:18;;;;;;;9.97;8.97;;;;;;;8.18;95.91;100457.38;4992421;28;20198;-78
2022/02/03 13:27:55;;;;;;;8.90;8.20;;;;;;;8.26;96.67;100438.22;4999222;28;20210;-78
2022/02/03 13:30:43;;;;;;;9.20;8.40;;;;;;;8.28;96.89;100426.06;5009858;28;20735;-78
2022/02/03 13:33:11;;;;;;;11.57;10.57;;;;;;;8.18;96.86;100432.22;5012266;28;20226;-81
2022/02/03 13:35:48;;;;;;;9.90;8.93;;;;;;;8.23;97.07;100412.25;5011359;28;20313;-78
2022/02/03 13:38:26;;;;;;;8.90;8.07;;;;;;;8.27;97.32;100398.34;5010384;28;20198;-77
2022/02/03 13:41:06;;;;;;;8.43;7.60;;;;;;;8.24;96.98;100420.91;4986740;28;20266;-78
2022/02/03 13:43:38;;;;;;;8.20;7.50;;;;;;;8.29;97.00;100401.78;4989901;28;20361;-79
2022/02/03 13:46:06;;;;;;;8.43;7.63;;;;;;;8.29;96.71;100396.59;4990811;28;20276;-80
2022/02/03 13:48:32;;;;;;;11.30;10.20;;;;;;;8.31;96.24;100401.78;4989517;28;20220;-79
2022/02/03 13:51:01;;;;;;;10.07;9.17;;;;;;;8.31;96.10;100407.00;4987900;28;20211;-77
2022/02/03 13:53:36;;;;;;;9.00;8.10;;;;;;;8.24;95.95;100410.50;4984664;28;20234;-80
2022/02/03 14:15:59;;;;;;;6.33;5.73;;;;;;;7.92;97.40;100344.09;4992936;28;20247;-79
2022/02/03 14:18:45;;;;;;;4.87;4.37;;;;;;;7.94;97.49;100332.81;4996608;28;20567;-79
2022/02/03 14:21:18;;;;;;;3.87;3.57;;;;;;;7.60;99.16;100314.09;5005081;28;20226;-78
2022/02/03 14:27:06;;;;;;;3.87;3.53;;;;;;;7.69;99.52;100256.84;5004654;28;20291;-78
2022/02/03 14:29:40;;;;;;;3.33;3.03;;;;;;;7.78;99.48;100262.81;4997434;28;20201;-78
2022/02/03 14:32:08;;;;;;;6.23;3.80;;;;;;;7.77;99.74;100251.59;5011819;28;20317;-79
2022/02/03 14:34:35;;;;;;;3.17;2.97;;;;;;;7.80;99.72;100250.69;5011951;28;20215;-78
2022/02/03 14:37:06;;;;;;;3.20;2.90;;;;;;;7.84;99.56;100244.56;5012219;28;20324;-78
2022/02/03 14:39:52;;;;;;;2.77;2.53;;;;;;;7.87;99.31;100260.09;5011907;28;20329;-78
2022/02/03 14:42:20;;;;;;;3.00;2.70;;;;;;;7.88;99.21;100270.50;5012249;28;20247;-79
2022/02/03 14:44:47;;;;;;;3.77;2.87;;;;;;;7.89;98.89;100266.19;5012725;28;20212;-79
2022/02/03 14:47:13;;;;;;;2.63;2.43;;;;;;;7.84;99.36;100268.81;5012056;28;20213;-78
2022/02/03 14:49:43;;;;;;;2.40;2.20;;;;;;;7.71;99.61;100269.81;5012573;28;20215;-78
2022/02/03 14:52:13;;;;;;;2.27;2.07;;;;;;;7.66;99.95;100245.63;5012823;28;20238;-80
2022/02/03 15:00:15;;;;;;;2.10;2.00;;;;;;;7.17;100.00;100163.84;5004460;28;20221;-78
2022/02/03 15:02:41;;;;;;;2.60;2.40;;;;;;;6.83;100.00;100145.16;5011937;28;20234;-78
2022/02/03 15:05:11;;;;;;;3.23;3.03;;;;;;;6.74;100.00;100115.81;5011703;28;20216;-77
2022/02/03 15:07:41;;;;;;;4.93;4.63;;;;;;;6.69;100.00;100090.78;5012572;28;20665;-77
2022/02/03 15:10:29;;;;;;;5.23;4.83;;;;;;;6.49;100.00;100068.47;5011001;28;20692;-78
2022/02/03 15:13:03;;;;;;;5.57;5.17;;;;;;;6.44;100.00;100053.81;5012222;28;20249;-77
2022/02/03 15:15:30;;;;;;;7.03;6.53;;;;;;;6.47;100.00;100043.44;5011790;28;20201;-78
2022/02/03 15:17:57;;;;;;;5.30;4.90;;;;;;;6.48;100.00;100037.38;5012011;28;20267;-77
2022/02/03 15:20:24;;;;;;;5.40;5.00;;;;;;;6.57;100.00;100034.69;5009979;28;20297;-78
2022/02/03 15:22:50;;;;;;;7.20;5.83;;;;;;;6.54;100.00;100034.72;4992119;28;20317;-78
2022/02/03 15:25:17;;;;;;;6.47;5.97;;;;;;;6.50;100.00;100041.69;4995385;28;20207;-78
2022/02/03 15:27:43;;;;;;;6.33;5.80;;;;;;;6.44;100.00;100041.75;5007363;28;20205;-78
2022/02/03 15:30:12;;;;;;;7.47;6.97;;;;;;;6.39;100.00;100035.72;5010836;28;20204;-78
2022/02/03 15:32:41;;;;;;;9.70;8.90;;;;;;;6.28;100.00;100022.88;5012992;28;20828;-78
2022/02/03 15:35:14;;;;;;;9.63;8.90;;;;;;;6.18;100.00;100028.97;5012248;28;20204;-78
2022/02/03 15:37:44;;;;;;;11.07;10.17;;;;;;;6.18;100.00;100030.72;5013040;28;20303;-78
2022/02/03 15:40:16;;;;;;;13.67;11.97;;;;;;;6.22;100.00;100035.00;5011063;28;20267;-77
2022/02/03 15:42:52;;;;;;;13.63;12.53;;;;;;;6.16;100.00;100044.56;5012887;28;20261;-77
2022/02/03 15:45:19;;;;;;;13.00;11.90;;;;;;;6.27;100.00;100051.38;5012352;28;20761;-78
2022/02/03 15:47:50;;;;;;;13.03;11.93;;;;;;;6.30;100.00;100062.59;5012557;28;20219;-78
2022/02/03 16:01:35;;;;;;;13.90;12.80;;;;;;;6.16;100.00;100124.00;4983182;28;20719;-80
2022/02/03 16:04:21;;;;;;;13.70;12.60;;;;;;;6.24;100.00;100122.22;4982341;28;20260;-79
2022/02/03 16:17:48;;;;;;;15.13;13.73;;;;;;;6.13;100.00;100124.91;4981565;28;20231;-79
2022/02/03 16:20:19;;;;;;;15.97;14.53;;;;;;;6.15;100.00;100123.16;4981000;28;20235;-79
2022/02/03 16:22:50;;;;;;;16.53;14.93;;;;;;;6.10;100.00;100113.69;4981948;28;20596;-79
2022/02/03 16:25:35;;;;;;;15.73;14.43;;;;;;;6.22;100.00;100103.22;4983530;28;20206;-80
2022/02/03 16:52:47;;;;;;;13.60;12.50;;;;;;;6.65;100.00;100149.59;4982716;28;20284;-78
2022/02/03 16:55:16;;;;;;;12.07;11.07;;;;;;;6.65;100.00;100159.97;4983089;28;20211;-80
2022/02/03 16:57:43;;;;;;;11.67;10.67;;;;;;;6.39;100.00;100195.59;4998882;28;20235;-76
2022/02/03 17:00:13;;;;;;;12.90;11.60;;;;;;;6.39;100.00;100196.44;4992999;28;20296;-78
2022/02/03 17:02:40;;;;;;;11.63;10.63;;;;;;;6.22;99.16;100219.84;4990998;28;20294;-79
2022/02/03 17:05:08;;;;;;;11.90;11.00;;;;;;;6.26;98.36;100237.13;4991658;28;20220;-79
2022/02/03 17:07:35;;;;;;;12.73;11.63;;;;;;;6.33;98.95;100231.03;4991711;28;20788;-79
2022/02/03 17:10:01;;;;;;;12.67;11.67;;;;;;;6.38;99.07;100223.22;4991591;28;20235;-79
2022/02/03 17:12:28;;;;;;;12.37;11.27;;;;;;;6.17;97.83;100237.19;4991849;28;20233;-78
2022/02/03 17:14:54;;;;;;;11.37;10.47;;;;;;;6.18;98.27;100225.94;4991877;28;20213;-79
2022/02/03 17:17:21;;;;;;;12.70;11.50;;;;;;;6.26;97.71;100254.41;4991756;28;20214;-78
2022/02/03 17:19:48;;;;;;;12.33;11.23;;;;;;;6.26;97.59;100255.25;4991036;28;20209;-79
2022/02/03 17:22:19;;;;;;;12.70;11.60;;;;;;;6.31;97.12;100269.06;4990855;28;20246;-79
2022/02/03 17:24:52;;;;;;;11.73;10.73;;;;;;;6.19;96.49;100276.06;4991425;28;20656;-78
2022/02/03 17:27:25;;;;;;;12.47;11.40;;;;;;;6.31;97.05;100265.63;5006224;28;20292;-78
2022/02/03 17:30:00;;;;;;;11.80;10.80;;;;;;;6.24;97.00;100263.91;5006729;28;20192;-79
2022/02/03 17:55:19;;;;;;;9.93;9.03;;;;;;;6.03;93.43;100399.59;5014571;28;20242;-78
2022/02/03 18:03:22;;;;;;;8.33;7.63;;;;;;;6.06;92.92;100387.50;5013466;28;20346;-79
2022/02/03 18:06:36;;;;;;;8.90;8.13;;;;;;;6.13;92.81;100389.22;5013479;28;20598;-78
2022/02/03 18:09:05;;;;;;;11.57;8.33;;;;;;;5.93;93.15;100406.50;5012852;28;20216;-79
2022/02/03 18:17:26;;;;;;;8.70;8.00;;;;;;;5.89;93.60;100382.31;5013153;28;20194;-79
2022/02/03 18:25:45;;;;;;;9.70;8.80;;;;;;;5.96;93.81;100378.84;5014034;28;20192;-79
2022/02/03 18:31:10;;;;;;;10.70;9.80;;;;;;;6.06;94.60;100334.81;5003458;28;20336;-78
2022/02/03 18:34:05;;;;;;;9.43;8.63;;;;;;;6.12;95.77;100327.03;5013012;28;20324;-78